Costa Magica — IBQQ — position and weather

sailwx.info

Track history (hours):
 
Tides and Currents Weather Stations Pressure Air Temp Water Temp Dewpoint Dewpoint Depression Visibility Wind Speed Wind Dir Waves Ship Positions

Costa Magica

Last reported at 2017-Mar-24 17:31 UTC. Time now 2017-Mar-24 17:58 UTC.
Position N 16°14' W 061°32'.

Type: Ship. MMSI: 247113300.

Date/timePositionNaut miles runAvg speedWind from/ knotsBaromVisibWave heightAir tempDewpointWater temp
2017-Mar-24 17:31N 16°14' W 061°32'0 0.0
2017-Mar-24 16:31N 16°14' W 061°32'0 0.0
2017-Mar-24 15:31N 16°14' W 061°32'0 0.0
2017-Mar-24 14:28N 16°14' W 061°32'0 0.0
2017-Mar-24 13:31N 16°14' W 061°32'0 0.0
2017-Mar-24 12:31N 16°14' W 061°32'0 0.0
2017-Mar-24 11:31N 16°14' W 061°32'5 5.1
2017-Mar-24 10:33N 16°09' W 061°31'9 9.0
2017-Mar-24 09:33N 16°00' W 061°30'1211.1
2017-Mar-24 08:29N 15°49' W 061°32'1010.5
2017-Mar-24 07:33N 15°43' W 061°40'10 9.6
2017-Mar-24 06:33N 15°34' W 061°45'1211.9
2017-Mar-24 05:33N 15°23' W 061°41'1212.1
2017-Mar-24 04:33N 15°11' W 061°37'1211.6
2017-Mar-24 03:33N 15°00' W 061°33'1312.6
2017-Mar-24 02:29N 14°47' W 061°29'27 1.7
2017-Mar-23 10:20N 14°28' W 061°08'  
2017-Mar-18 05:34N 15°51' W 061°46'1717.1
2017-Mar-18 04:33N 16°00' W 061°31'1111.5
2017-Mar-18 03:33N 16°12' W 061°32'3 2.6
2017-Mar-18 02:33N 16°14' W 061°32'0 0.0
2017-Mar-18 01:30N 16°14' W 061°32'0 0.0
2017-Mar-18 00:33N 16°14' W 061°32'0 0.0
2017-Mar-17 23:34N 16°14' W 061°32'0 0.0
2017-Mar-17 22:33N 16°14' W 061°32'0 0.0
2017-Mar-17 21:34N 16°14' W 061°32'0 0.0
2017-Mar-17 20:34N 16°14' W 061°32'0 0.0
2017-Mar-17 19:33N 16°14' W 061°32'0 0.0
2017-Mar-17 18:34N 16°14' W 061°32'0 0.0
2017-Mar-17 17:33N 16°14' W 061°32'0 0.0
2017-Mar-17 16:34N 16°14' W 061°32'0 0.0
2017-Mar-17 15:33N 16°14' W 061°32'0 0.0
2017-Mar-17 14:33N 16°14' W 061°32'0 0.0
2017-Mar-17 13:33N 16°14' W 061°32'0 0.0
2017-Mar-17 12:33N 16°14' W 061°32'0 0.0
2017-Mar-17 11:33N 16°14' W 061°32'5 5.1
2017-Mar-17 10:33N 16°09' W 061°31'1110.8
2017-Mar-17 09:33N 15°59' W 061°31'1010.3
2017-Mar-17 08:33N 15°49' W 061°33'11 9.9
2017-Mar-17 07:28N 15°42' W 061°41'9 9.4
2017-Mar-17 06:33N 15°34' W 061°46'1010.2
2017-Mar-17 05:32N 15°24' W 061°48'61 3.2
2017-Mar-16 10:29N 14°35' W 061°10'  
Track history (hours):
 
Tides and Currents Weather Stations Pressure Air Temp Water Temp Dewpoint Dewpoint Depression Visibility Wind Speed Wind Dir Waves Ship Positions

Costa Magica

Last reported at 2017-Mar-24 17:31 UTC. Time now 2017-Mar-24 17:58 UTC.
Position N 16°14' W 061°32'.

Type: Ship. MMSI: 247113300.

Date/timePositionNaut miles runAvg speedWind from/ knotsBaromVisibWave heightAir tempDewpointWater temp
2017-Mar-24 17:31N 16°14' W 061°32'0 0.0
2017-Mar-24 16:31N 16°14' W 061°32'0 0.0
2017-Mar-24 15:31N 16°14' W 061°32'0 0.0
2017-Mar-24 14:28N 16°14' W 061°32'0 0.0
2017-Mar-24 13:31N 16°14' W 061°32'0 0.0
2017-Mar-24 12:31N 16°14' W 061°32'0 0.0
2017-Mar-24 11:31N 16°14' W 061°32'5 5.1
2017-Mar-24 10:33N 16°09' W 061°31'9 9.0
2017-Mar-24 09:33N 16°00' W 061°30'1211.1
2017-Mar-24 08:29N 15°49' W 061°32'1010.5
2017-Mar-24 07:33N 15°43' W 061°40'10 9.6
2017-Mar-24 06:33N 15°34' W 061°45'1211.9
2017-Mar-24 05:33N 15°23' W 061°41'1212.1
2017-Mar-24 04:33N 15°11' W 061°37'1211.6
2017-Mar-24 03:33N 15°00' W 061°33'1312.6
2017-Mar-24 02:29N 14°47' W 061°29'27 1.7
2017-Mar-23 10:20N 14°28' W 061°08'  
2017-Mar-18 05:34N 15°51' W 061°46'1717.1
2017-Mar-18 04:33N 16°00' W 061°31'1111.5
2017-Mar-18 03:33N 16°12' W 061°32'3 2.6
2017-Mar-18 02:33N 16°14' W 061°32'0 0.0
2017-Mar-18 01:30N 16°14' W 061°32'0 0.0
2017-Mar-18 00:33N 16°14' W 061°32'0 0.0
2017-Mar-17 23:34N 16°14' W 061°32'0 0.0
2017-Mar-17 22:33N 16°14' W 061°32'0 0.0
2017-Mar-17 21:34N 16°14' W 061°32'0 0.0
2017-Mar-17 20:34N 16°14' W 061°32'0 0.0
2017-Mar-17 19:33N 16°14' W 061°32'0 0.0
2017-Mar-17 18:34N 16°14' W 061°32'0 0.0
2017-Mar-17 17:33N 16°14' W 061°32'0 0.0
2017-Mar-17 16:34N 16°14' W 061°32'0 0.0
2017-Mar-17 15:33N 16°14' W 061°32'0 0.0
2017-Mar-17 14:33N 16°14' W 061°32'0 0.0
2017-Mar-17 13:33N 16°14' W 061°32'0 0.0
2017-Mar-17 12:33N 16°14' W 061°32'0 0.0
2017-Mar-17 11:33N 16°14' W 061°32'5 5.1
2017-Mar-17 10:33N 16°09' W 061°31'1110.8
2017-Mar-17 09:33N 15°59' W 061°31'1010.3
2017-Mar-17 08:33N 15°49' W 061°33'11 9.9
2017-Mar-17 07:28N 15°42' W 061°41'9 9.4
2017-Mar-17 06:33N 15°34' W 061°46'1010.2
2017-Mar-17 05:32N 15°24' W 061°48'61 3.2
2017-Mar-16 10:29N 14°35' W 061°10'  

Dump ship's entire track history